createdAt,value
2022-07-27T00:00:18.296Z,0
2022-07-27T00:00:38.357Z,0
2022-07-27T00:00:58.416Z,0
2022-07-27T00:01:18.447Z,0
2022-07-27T00:01:38.439Z,0
2022-07-27T00:01:58.511Z,0
2022-07-27T00:02:18.593Z,0
2022-07-27T00:02:38.640Z,0
2022-07-27T00:02:58.704Z,0
2022-07-27T00:03:18.757Z,0
2022-07-27T00:03:38.832Z,0
2022-07-27T00:03:58.933Z,0
2022-07-27T00:04:19.062Z,0
2022-07-27T00:04:39.074Z,0
2022-07-27T00:04:59.065Z,0
2022-07-27T00:05:19.191Z,0
2022-07-27T00:05:39.190Z,0
2022-07-27T00:05:59.246Z,0
2022-07-27T00:06:19.301Z,0
2022-07-27T00:06:39.356Z,0
2022-07-27T00:06:59.432Z,0
2022-07-27T00:07:19.483Z,0
2022-07-27T00:07:39.543Z,0
2022-07-27T00:07:59.600Z,0
2022-07-27T00:08:19.663Z,0
2022-07-27T00:08:39.722Z,0
2022-07-27T00:08:59.778Z,0
2022-07-27T00:09:19.842Z,0
2022-07-27T00:09:39.893Z,0
2022-07-27T00:09:59.951Z,0
2022-07-27T00:10:20.140Z,0
2022-07-27T00:10:40.075Z,0
2022-07-27T00:11:00.135Z,0
2022-07-27T00:11:20.191Z,0
2022-07-27T00:11:40.231Z,0
2022-07-27T00:12:00.300Z,0
2022-07-27T00:12:20.383Z,0
2022-07-27T00:12:40.432Z,0
2022-07-27T00:13:00.503Z,0
2022-07-27T00:13:20.556Z,0
2022-07-27T00:13:40.616Z,0
2022-07-27T00:14:00.693Z,0
2022-07-27T00:14:20.747Z,0
2022-07-27T00:14:40.785Z,0
2022-07-27T00:15:00.856Z,0
2022-07-27T00:15:20.999Z,0
2022-07-27T00:15:40.976Z,0
2022-07-27T00:16:01.126Z,0
2022-07-27T00:16:21.183Z,0
2022-07-27T00:16:41.197Z,0
2022-07-27T00:17:01.197Z,0
2022-07-27T00:17:21.258Z,0
2022-07-27T00:17:41.340Z,0
2022-07-27T00:18:01.390Z,0
2022-07-27T00:18:21.443Z,0
2022-07-27T00:18:41.514Z,0
2022-07-27T00:19:01.569Z,0
2022-07-27T00:19:21.638Z,0
2022-07-27T00:19:41.687Z,0
2022-07-27T00:20:01.743Z,0
2022-07-27T00:20:26.945Z,0
2022-07-27T00:20:41.855Z,0
2022-07-27T00:21:01.914Z,0
2022-07-27T00:21:21.965Z,0
2022-07-27T00:21:46.206Z,0
2022-07-27T00:22:02.129Z,0
2022-07-27T00:22:22.197Z,0
2022-07-27T00:22:42.247Z,0
2022-07-27T00:23:02.313Z,0
2022-07-27T00:23:22.393Z,0
2022-07-27T00:23:42.483Z,0
2022-07-27T00:24:02.520Z,0
2022-07-27T00:24:22.556Z,0
2022-07-27T00:24:42.640Z,0
2022-07-27T00:25:02.708Z,0
2022-07-27T00:25:23.044Z,0
2022-07-27T00:25:42.825Z,0
2022-07-27T00:26:02.879Z,0
2022-07-27T00:26:22.944Z,0
2022-07-27T00:26:43.005Z,0
2022-07-27T00:27:03.060Z,0
2022-07-27T00:27:23.095Z,0
2022-07-27T00:27:43.170Z,0
2022-07-27T00:28:03.245Z,0
2022-07-27T00:28:23.301Z,0
2022-07-27T00:28:43.362Z,0
2022-07-27T00:29:03.420Z,0
2022-07-27T00:29:23.461Z,0
2022-07-27T00:29:43.510Z,0
2022-07-27T00:30:03.586Z,0
2022-07-27T00:30:23.701Z,0
2022-07-27T00:30:43.713Z,0
2022-07-27T00:31:03.862Z,0
2022-07-27T00:31:23.962Z,0
2022-07-27T00:31:43.990Z,0
2022-07-27T00:32:03.946Z,0
2022-07-27T00:32:24.029Z,0
2022-07-27T00:32:44.080Z,0
2022-07-27T00:33:04.130Z,0
2022-07-27T00:33:24.204Z,0
2022-07-27T00:33:44.265Z,0
2022-07-27T00:34:04.319Z,0
2022-07-27T00:34:24.350Z,0
2022-07-27T00:34:44.401Z,0
2022-07-27T00:35:04.497Z,0
2022-07-27T00:35:24.644Z,0
2022-07-27T00:35:44.622Z,0
2022-07-27T00:36:04.675Z,0
2022-07-27T00:36:24.749Z,0
2022-07-27T00:36:44.794Z,0
2022-07-27T00:37:04.856Z,0
2022-07-27T00:37:24.923Z,0
2022-07-27T00:37:44.978Z,0
2022-07-27T00:38:05.026Z,0
2022-07-27T00:38:25.101Z,0
2022-07-27T00:38:45.145Z,0
2022-07-27T00:39:05.206Z,0
2022-07-27T00:39:25.263Z,0
2022-07-27T00:39:45.324Z,0
2022-07-27T00:40:05.391Z,0
2022-07-27T00:40:25.533Z,0
2022-07-27T00:40:45.506Z,0
2022-07-27T00:41:05.567Z,0
2022-07-27T00:41:25.645Z,0
2022-07-27T00:41:45.680Z,0
2022-07-27T00:42:05.746Z,0
2022-07-27T00:42:25.815Z,0
2022-07-27T00:42:45.889Z,0
2022-07-27T00:43:05.936Z,0
2022-07-27T00:43:25.992Z,0
2022-07-27T00:43:46.052Z,0
2022-07-27T00:44:06.114Z,0
2022-07-27T00:44:26.182Z,0
2022-07-27T00:44:46.245Z,0
2022-07-27T00:45:06.318Z,0
2022-07-27T00:45:26.474Z,0
2022-07-27T00:45:46.516Z,0
2022-07-27T00:46:06.559Z,0
2022-07-27T00:46:26.712Z,0
2022-07-27T00:46:46.718Z,0
2022-07-27T00:47:06.807Z,0
2022-07-27T00:47:26.815Z,0
2022-07-27T00:47:49.526Z,0
2022-07-27T00:48:06.966Z,0
2022-07-27T00:48:27.271Z,0
2022-07-27T00:48:47.199Z,0
2022-07-27T00:49:07.278Z,0
2022-07-27T00:49:27.339Z,0
2022-07-27T00:49:47.323Z,0
2022-07-27T00:50:07.415Z,0
2022-07-27T00:50:27.537Z,0
2022-07-27T00:50:47.562Z,0
2022-07-27T00:51:07.619Z,0
2022-07-27T00:51:27.691Z,0
2022-07-27T00:51:47.746Z,0
2022-07-27T00:52:07.815Z,0
2022-07-27T00:52:27.871Z,0
2022-07-27T00:52:47.955Z,0
2022-07-27T00:53:08.035Z,0
2022-07-27T00:53:28.101Z,0
2022-07-27T00:53:48.186Z,0
2022-07-27T00:54:08.267Z,0
2022-07-27T00:54:28.314Z,0
2022-07-27T00:54:48.376Z,0
2022-07-27T00:55:08.456Z,0
2022-07-27T00:55:28.593Z,0
2022-07-27T00:55:48.582Z,0
2022-07-27T00:56:08.648Z,0
2022-07-27T00:56:28.733Z,0
2022-07-27T00:56:48.789Z,0
2022-07-27T00:57:08.866Z,0
2022-07-27T00:57:28.940Z,0
2022-07-27T00:57:58.901Z,0
2022-07-27T00:58:09.048Z,0
2022-07-27T00:58:29.137Z,0
2022-07-27T00:58:49.221Z,0
2022-07-27T00:59:11.495Z,0
2022-07-27T00:59:29.379Z,0
2022-07-27T00:59:49.454Z,0
2022-07-27T01:00:09.540Z,0
2022-07-27T01:00:29.651Z,0
2022-07-27T01:00:49.662Z,0
2022-07-27T01:01:09.742Z,0
2022-07-27T01:01:29.854Z,0
2022-07-27T01:01:50.004Z,0
2022-07-27T01:02:11.953Z,0
2022-07-27T01:02:30.167Z,0
2022-07-27T01:02:50.279Z,0
2022-07-27T01:03:10.335Z,0
2022-07-27T01:03:30.223Z,0
2022-07-27T01:03:50.309Z,0
2022-07-27T01:04:10.371Z,0
2022-07-27T01:04:30.473Z,0
2022-07-27T01:04:53.526Z,0
2022-07-27T01:05:10.595Z,0
2022-07-27T01:05:36.590Z,0
2022-07-27T01:05:50.770Z,0
2022-07-27T01:06:10.874Z,0
2022-07-27T01:06:30.934Z,0
2022-07-27T01:06:51.002Z,0
2022-07-27T01:07:11.070Z,0
2022-07-27T01:07:31.144Z,0
2022-07-27T01:07:51.232Z,0
2022-07-27T01:08:11.313Z,0
2022-07-27T01:08:31.384Z,0
2022-07-27T01:08:51.464Z,0
2022-07-27T01:09:11.778Z,0
2022-07-27T01:09:31.634Z,0
2022-07-27T01:09:51.731Z,0
2022-07-27T01:10:11.781Z,0
2022-07-27T01:10:31.943Z,0
2022-07-27T01:10:51.936Z,0
2022-07-27T01:11:12.044Z,0
2022-07-27T01:11:32.124Z,0
2022-07-27T01:11:52.205Z,0
2022-07-27T01:12:12.277Z,0
2022-07-27T01:12:32.346Z,0
2022-07-27T01:12:52.419Z,0
2022-07-27T01:13:13.571Z,0
2022-07-27T01:13:32.608Z,0
2022-07-27T01:13:52.692Z,0
2022-07-27T01:14:12.763Z,0
2022-07-27T01:14:32.934Z,0
2022-07-27T01:14:52.958Z,0
2022-07-27T01:15:13.020Z,0
2022-07-27T01:15:35.311Z,0
2022-07-27T01:15:53.250Z,0
2022-07-27T01:16:13.285Z,0
2022-07-27T01:16:33.362Z,0
2022-07-27T01:16:53.347Z,0
2022-07-27T01:17:13.432Z,0
2022-07-27T01:17:33.508Z,0
2022-07-27T01:17:53.591Z,0
2022-07-27T01:18:13.726Z,0
2022-07-27T01:18:33.773Z,0
2022-07-27T01:18:53.857Z,0
2022-07-27T01:19:14.422Z,0
2022-07-27T01:19:34.010Z,0
2022-07-27T01:19:54.111Z,0
2022-07-27T01:20:14.154Z,0
2022-07-27T01:20:34.299Z,0
2022-07-27T01:20:54.315Z,0
2022-07-27T01:21:14.393Z,0
2022-07-27T01:21:34.510Z,0
2022-07-27T01:21:54.568Z,0
2022-07-27T01:22:14.616Z,0
2022-07-27T01:22:34.695Z,0
2022-07-27T01:22:54.772Z,0
2022-07-27T01:23:14.862Z,0
2022-07-27T01:23:34.922Z,0
2022-07-27T01:23:54.980Z,0
2022-07-27T01:24:15.047Z,0
2022-07-27T01:24:35.131Z,0
2022-07-27T01:24:55.210Z,0
2022-07-27T01:25:15.257Z,0
2022-07-27T01:25:35.398Z,0
2022-07-27T01:25:55.415Z,0
2022-07-27T01:26:15.480Z,0
2022-07-27T01:26:35.568Z,0
2022-07-27T01:26:55.661Z,0
2022-07-27T01:27:15.712Z,0
2022-07-27T01:27:35.802Z,0
2022-07-27T01:27:55.865Z,0
2022-07-27T01:28:15.927Z,0
2022-07-27T01:28:35.982Z,0
2022-07-27T01:28:56.049Z,0
2022-07-27T01:29:16.159Z,0
2022-07-27T01:29:36.206Z,0
2022-07-27T01:29:56.276Z,0
2022-07-27T01:30:16.342Z,0
2022-07-27T01:30:36.504Z,0
2022-07-27T01:30:56.548Z,0
2022-07-27T01:31:16.694Z,0
2022-07-27T01:31:36.661Z,0
2022-07-27T01:31:56.675Z,0
2022-07-27T01:32:16.736Z,0
2022-07-27T01:32:36.801Z,0
2022-07-27T01:32:56.849Z,0
2022-07-27T01:33:16.917Z,0
2022-07-27T01:33:36.979Z,0
2022-07-27T01:33:57.030Z,0
2022-07-27T01:34:17.127Z,0
2022-07-27T01:34:37.158Z,0
2022-07-27T01:34:57.209Z,0
2022-07-27T01:35:17.269Z,0
2022-07-27T01:35:37.397Z,0
2022-07-27T01:35:57.466Z,0
2022-07-27T01:36:17.437Z,0
2022-07-27T01:36:37.500Z,0
2022-07-27T01:36:57.579Z,0
2022-07-27T01:37:17.628Z,0
2022-07-27T01:37:37.690Z,0
2022-07-27T01:37:57.739Z,0
2022-07-27T01:38:17.802Z,0
2022-07-27T01:38:37.869Z,0
2022-07-27T01:38:57.927Z,0
2022-07-27T01:39:17.984Z,0
2022-07-27T01:39:38.047Z,0
2022-07-27T01:39:58.102Z,0
2022-07-27T01:40:18.163Z,0
2022-07-27T01:40:38.287Z,0
2022-07-27T01:40:58.281Z,0
2022-07-27T01:41:18.332Z,0
2022-07-27T01:41:38.398Z,0
2022-07-27T01:41:58.455Z,0
2022-07-27T01:42:18.514Z,0
2022-07-27T01:42:38.577Z,0
2022-07-27T01:42:58.631Z,0
2022-07-27T01:43:18.693Z,0
2022-07-27T01:43:38.745Z,0
2022-07-27T01:43:58.798Z,0
2022-07-27T01:44:18.850Z,0
2022-07-27T01:44:38.911Z,0
2022-07-27T01:44:58.986Z,0
2022-07-27T01:45:19.125Z,0
2022-07-27T01:45:39.178Z,0
2022-07-27T01:45:59.190Z,0
2022-07-27T01:46:19.304Z,0
2022-07-27T01:46:39.380Z,0
2022-07-27T01:46:59.339Z,0
2022-07-27T01:47:19.404Z,0
2022-07-27T01:47:39.469Z,0
2022-07-27T01:47:59.534Z,0
2022-07-27T01:48:19.591Z,0
2022-07-27T01:48:39.681Z,0
2022-07-27T01:48:59.783Z,0
2022-07-27T01:49:19.873Z,0
2022-07-27T01:49:39.840Z,0
2022-07-27T01:49:59.878Z,0
2022-07-27T01:50:19.943Z,0
2022-07-27T01:50:40.070Z,0
2022-07-27T01:51:00.058Z,0
2022-07-27T01:51:20.108Z,0
2022-07-27T01:51:40.161Z,0
2022-07-27T01:52:00.225Z,0
2022-07-27T01:52:20.293Z,0
2022-07-27T01:52:40.356Z,0
2022-07-27T01:53:00.420Z,0
2022-07-27T01:53:20.478Z,0
2022-07-27T01:53:40.532Z,0
2022-07-27T01:54:00.590Z,0
2022-07-27T01:54:20.658Z,0
2022-07-27T01:54:40.712Z,0
2022-07-27T01:55:00.778Z,0
2022-07-27T01:55:20.829Z,0
2022-07-27T01:55:40.961Z,0
2022-07-27T01:56:00.951Z,0
2022-07-27T01:56:21.019Z,0
2022-07-27T01:56:41.097Z,0
2022-07-27T01:57:01.152Z,0
2022-07-27T01:57:21.201Z,0
2022-07-27T01:57:41.281Z,0
2022-07-27T01:58:01.319Z,0
2022-07-27T01:58:21.368Z,0
2022-07-27T01:58:41.433Z,0
2022-07-27T01:59:01.484Z,0
2022-07-27T01:59:21.539Z,0
2022-07-27T01:59:41.625Z,0
2022-07-27T02:00:01.698Z,0
2022-07-27T02:00:21.790Z,0
2022-07-27T02:00:41.911Z,0
2022-07-27T02:01:01.914Z,0
2022-07-27T02:01:22.149Z,0
2022-07-27T02:01:42.115Z,0
2022-07-27T02:02:02.208Z,0
2022-07-27T02:02:22.223Z,0
2022-07-27T02:02:42.283Z,0
2022-07-27T02:03:02.349Z,0
2022-07-27T02:03:22.395Z,0
2022-07-27T02:03:42.453Z,0
2022-07-27T02:04:02.505Z,0
2022-07-27T02:04:22.563Z,0
2022-07-27T02:04:42.639Z,0
2022-07-27T02:05:02.794Z,0
2022-07-27T02:05:22.788Z,0
2022-07-27T02:05:42.973Z,0
2022-07-27T02:06:02.834Z,0
2022-07-27T02:06:22.923Z,0
2022-07-27T02:06:42.996Z,0
2022-07-27T02:07:03.058Z,0
2022-07-27T02:07:23.132Z,0
2022-07-27T02:07:43.184Z,0
2022-07-27T02:08:03.243Z,0
2022-07-27T02:08:23.288Z,0
2022-07-27T02:08:43.363Z,0
2022-07-27T02:09:03.419Z,0
2022-07-27T02:09:23.476Z,0
2022-07-27T02:09:43.534Z,0
2022-07-27T02:10:03.590Z,0
2022-07-27T02:10:23.647Z,0
2022-07-27T02:10:43.785Z,0
2022-07-27T02:11:03.774Z,0
2022-07-27T02:11:23.831Z,0
2022-07-27T02:11:43.878Z,0
2022-07-27T02:12:03.947Z,0
2022-07-27T02:12:24.003Z,0
2022-07-27T02:12:44.065Z,0
2022-07-27T02:13:22.269Z,0
2022-07-27T02:13:24.202Z,0
2022-07-27T02:13:44.265Z,0
2022-07-27T02:14:04.311Z,0
2022-07-27T02:14:24.386Z,0
2022-07-27T02:14:44.457Z,0
2022-07-27T02:15:05.919Z,0
2022-07-27T02:15:25.092Z,0
2022-07-27T02:15:44.851Z,0
2022-07-27T02:16:04.754Z,0
2022-07-27T02:16:24.787Z,0
2022-07-27T02:16:44.887Z,0
2022-07-27T02:17:04.873Z,0
2022-07-27T02:17:24.911Z,0
2022-07-27T02:17:45.357Z,0
2022-07-27T02:18:05.031Z,0
2022-07-27T02:18:36.212Z,0
2022-07-27T02:18:45.147Z,0
2022-07-27T02:19:05.400Z,0
2022-07-27T02:19:25.271Z,0
2022-07-27T02:19:45.325Z,0
2022-07-27T02:20:05.389Z,0
2022-07-27T02:20:25.445Z,0
2022-07-27T02:20:45.594Z,0
2022-07-27T02:21:05.570Z,0
2022-07-27T02:21:25.628Z,0
2022-07-27T02:21:45.677Z,0
2022-07-27T02:22:05.766Z,0
2022-07-27T02:22:25.794Z,0
2022-07-27T02:22:45.861Z,0
2022-07-27T02:23:05.910Z,0
2022-07-27T02:23:25.988Z,0
2022-07-27T02:23:46.059Z,0
2022-07-27T02:24:06.120Z,0
2022-07-27T02:24:26.163Z,0
2022-07-27T02:24:46.248Z,0
2022-07-27T02:25:06.301Z,0
2022-07-27T02:25:26.365Z,0
2022-07-27T02:25:46.491Z,0
2022-07-27T02:26:06.473Z,0
2022-07-27T02:26:26.539Z,0
2022-07-27T02:26:46.606Z,0
2022-07-27T02:27:06.654Z,0
2022-07-27T02:27:26.713Z,0
2022-07-27T02:27:46.767Z,0
2022-07-27T02:28:06.837Z,0
2022-07-27T02:28:26.903Z,0
2022-07-27T02:28:46.976Z,0
2022-07-27T02:29:07.030Z,0
2022-07-27T02:29:27.077Z,0
2022-07-27T02:29:47.144Z,0
2022-07-27T02:30:07.202Z,0
2022-07-27T02:30:27.264Z,0
2022-07-27T02:30:47.398Z,0
2022-07-27T02:31:07.384Z,0
2022-07-27T02:31:29.941Z,0
2022-07-27T02:31:47.503Z,0
2022-07-27T02:32:07.558Z,0
2022-07-27T02:32:27.633Z,0
2022-07-27T02:32:47.719Z,0
2022-07-27T02:33:07.799Z,0
2022-07-27T02:33:27.784Z,0
2022-07-27T02:33:47.851Z,0
2022-07-27T02:34:07.906Z,0
2022-07-27T02:34:27.957Z,0
2022-07-27T02:34:48.027Z,0
2022-07-27T02:35:18.961Z,0
2022-07-27T02:35:28.133Z,0
2022-07-27T02:35:48.289Z,0
2022-07-27T02:36:08.273Z,0
2022-07-27T02:36:28.342Z,0
2022-07-27T02:36:48.400Z,0
2022-07-27T02:37:08.457Z,0
2022-07-27T02:37:28.521Z,0
2022-07-27T02:37:48.889Z,0
2022-07-27T02:38:08.609Z,0
2022-07-27T02:38:28.696Z,0
2022-07-27T02:38:48.759Z,0
2022-07-27T02:39:09.145Z,0
2022-07-27T02:39:28.867Z,0
2022-07-27T02:39:48.921Z,0
2022-07-27T02:40:08.956Z,0
2022-07-27T02:40:29.004Z,0
2022-07-27T02:40:49.178Z,0
2022-07-27T02:41:09.162Z,0
2022-07-27T02:41:29.220Z,0
2022-07-27T02:41:49.293Z,0
2022-07-27T02:42:09.321Z,0
2022-07-27T02:42:29.394Z,0
2022-07-27T02:42:49.448Z,0
2022-07-27T02:43:09.526Z,0
2022-07-27T02:43:29.579Z,0
2022-07-27T02:43:49.636Z,0
2022-07-27T02:44:09.703Z,0
2022-07-27T02:44:29.751Z,0
2022-07-27T02:44:49.817Z,0
2022-07-27T02:45:09.871Z,0
2022-07-27T02:45:29.946Z,0
2022-07-27T02:45:50.174Z,0
2022-07-27T02:46:10.109Z,0
2022-07-27T02:46:30.179Z,0
2022-07-27T02:46:50.198Z,0
2022-07-27T02:47:10.244Z,0
2022-07-27T02:47:30.299Z,0
2022-07-27T02:47:50.329Z,0
2022-07-27T02:48:10.400Z,0
2022-07-27T02:48:30.537Z,0
2022-07-27T02:48:50.630Z,0
2022-07-27T02:49:10.949Z,0
2022-07-27T02:49:30.652Z,0
2022-07-27T02:49:50.719Z,0
2022-07-27T02:50:10.784Z,0
2022-07-27T02:50:30.865Z,0
2022-07-27T02:50:50.989Z,0
2022-07-27T02:51:10.969Z,0
2022-07-27T02:51:31.015Z,0
2022-07-27T02:51:51.082Z,0
2022-07-27T02:52:11.140Z,0
2022-07-27T02:52:31.203Z,0
2022-07-27T02:52:51.256Z,0
2022-07-27T02:53:11.311Z,0
2022-07-27T02:53:31.366Z,0
2022-07-27T02:53:51.452Z,0
2022-07-27T02:54:11.528Z,0
2022-07-27T02:54:31.568Z,0
2022-07-27T02:54:51.632Z,0
2022-07-27T02:55:11.696Z,0
2022-07-27T02:55:31.753Z,0
2022-07-27T02:55:51.875Z,0
2022-07-27T02:56:11.867Z,0
2022-07-27T02:56:31.926Z,0
2022-07-27T02:56:51.996Z,0
2022-07-27T02:57:12.033Z,0
2022-07-27T02:57:32.108Z,0
2022-07-27T02:57:52.165Z,0
2022-07-27T02:58:12.220Z,0
2022-07-27T02:58:32.284Z,0
2022-07-27T02:58:52.345Z,0
2022-07-27T02:59:12.816Z,0
2022-07-27T02:59:32.462Z,0
2022-07-27T02:59:52.524Z,0
2022-07-27T03:00:12.595Z,0
2022-07-27T03:00:32.643Z,0
2022-07-27T03:00:58.227Z,0
2022-07-27T03:01:12.815Z,0
2022-07-27T03:01:32.902Z,0
2022-07-27T03:01:52.970Z,0
2022-07-27T03:02:12.929Z,0
2022-07-27T03:02:33.006Z,0
2022-07-27T03:02:53.062Z,0
2022-07-27T03:03:13.098Z,0
2022-07-27T03:03:36.546Z,0
2022-07-27T03:03:53.222Z,0
2022-07-27T03:04:13.371Z,0
2022-07-27T03:04:33.427Z,0
2022-07-27T03:04:53.410Z,0
2022-07-27T03:05:13.473Z,0
2022-07-27T03:05:33.540Z,0
2022-07-27T03:05:53.668Z,0
2022-07-27T03:06:13.663Z,0
2022-07-27T03:06:33.753Z,0
2022-07-27T03:06:53.811Z,0
2022-07-27T03:07:13.868Z,0
2022-07-27T03:07:33.913Z,0
2022-07-27T03:07:53.976Z,0
2022-07-27T03:08:14.048Z,0
2022-07-27T03:08:34.102Z,0
2022-07-27T03:08:54.155Z,0
2022-07-27T03:09:14.742Z,0
2022-07-27T03:09:34.303Z,0
2022-07-27T03:09:54.355Z,0
2022-07-27T03:10:14.425Z,0
2022-07-27T03:10:34.478Z,0
2022-07-27T03:10:54.603Z,0
2022-07-27T03:11:14.588Z,0
2022-07-27T03:11:34.648Z,0
2022-07-27T03:11:54.714Z,0
2022-07-27T03:12:14.759Z,0
2022-07-27T03:12:34.828Z,0
2022-07-27T03:12:54.891Z,0
2022-07-27T03:13:14.949Z,0
2022-07-27T03:13:34.998Z,0
2022-07-27T03:13:55.071Z,0
2022-07-27T03:14:15.131Z,0
2022-07-27T03:14:35.188Z,0
2022-07-27T03:14:55.253Z,0
2022-07-27T03:15:15.305Z,0
2022-07-27T03:15:35.457Z,0
2022-07-27T03:15:55.752Z,0
2022-07-27T03:16:15.652Z,0
2022-07-27T03:16:35.547Z,0
2022-07-27T03:16:55.599Z,0
2022-07-27T03:17:15.649Z,0
2022-07-27T03:17:35.732Z,0
2022-07-27T03:17:55.782Z,0
2022-07-27T03:18:15.842Z,0
2022-07-27T03:18:35.903Z,0
2022-07-27T03:18:55.979Z,0
2022-07-27T03:19:16.046Z,0
2022-07-27T03:19:36.111Z,0
2022-07-27T03:19:56.161Z,0
2022-07-27T03:20:16.208Z,0
2022-07-27T03:20:36.260Z,0
2022-07-27T03:20:56.383Z,0
2022-07-27T03:21:16.389Z,0
2022-07-27T03:21:36.455Z,0
2022-07-27T03:21:56.512Z,0
2022-07-27T03:22:16.584Z,0
2022-07-27T03:22:36.632Z,0
2022-07-27T03:22:56.681Z,0
2022-07-27T03:23:16.759Z,0
2022-07-27T03:23:36.841Z,0
2022-07-27T03:23:56.905Z,0
2022-07-27T03:24:16.944Z,0
2022-07-27T03:24:37.011Z,0
2022-07-27T03:24:57.090Z,0
2022-07-27T03:25:17.190Z,0
2022-07-27T03:25:37.284Z,0
2022-07-27T03:25:57.443Z,0
2022-07-27T03:26:17.446Z,0
2022-07-27T03:26:37.529Z,0
2022-07-27T03:26:57.596Z,0
2022-07-27T03:27:17.660Z,0
2022-07-27T03:27:38.118Z,0
2022-07-27T03:28:03.491Z,0
2022-07-27T03:28:17.816Z,0
2022-07-27T03:28:37.868Z,0
2022-07-27T03:28:57.894Z,0
2022-07-27T03:29:17.995Z,0
2022-07-27T03:29:38.039Z,0
2022-07-27T03:29:58.114Z,0
2022-07-27T03:30:18.159Z,0
2022-07-27T03:30:38.294Z,0
2022-07-27T03:30:58.397Z,0
2022-07-27T03:31:18.402Z,0
2022-07-27T03:31:38.397Z,0
2022-07-27T03:31:58.442Z,0
2022-07-27T03:32:18.512Z,0
2022-07-27T03:32:38.590Z,0
2022-07-27T03:32:58.632Z,0
2022-07-27T03:33:18.703Z,0
2022-07-27T03:33:38.765Z,0
2022-07-27T03:33:58.822Z,0
2022-07-27T03:34:18.890Z,0
2022-07-27T03:34:38.950Z,0
2022-07-27T03:34:59.169Z,0
2022-07-27T03:35:19.706Z,0
2022-07-27T03:35:39.132Z,0
2022-07-27T03:35:59.275Z,0
2022-07-27T03:36:19.262Z,0
2022-07-27T03:36:39.326Z,0
2022-07-27T03:36:59.386Z,0
2022-07-27T03:37:19.432Z,0
2022-07-27T03:37:39.494Z,0
2022-07-27T03:37:59.563Z,0
2022-07-27T03:38:19.641Z,0
2022-07-27T03:38:39.673Z,0
2022-07-27T03:39:03.024Z,0
2022-07-27T03:39:19.794Z,0
2022-07-27T03:39:39.857Z,0
2022-07-27T03:39:59.961Z,0
2022-07-27T03:40:20.012Z,0
2022-07-27T03:40:40.070Z,0
2022-07-27T03:41:00.209Z,0
2022-07-27T03:41:20.171Z,0
2022-07-27T03:41:40.229Z,0
2022-07-27T03:42:00.293Z,0
2022-07-27T03:42:20.357Z,0
2022-07-27T03:42:40.417Z,0
2022-07-27T03:43:00.480Z,0
2022-07-27T03:43:20.531Z,0
2022-07-27T03:43:40.599Z,0
2022-07-27T03:44:00.641Z,0
2022-07-27T03:44:20.708Z,0
2022-07-27T03:44:40.757Z,0
2022-07-27T03:45:00.824Z,0
2022-07-27T03:45:20.879Z,0
2022-07-27T03:45:40.998Z,0
2022-07-27T03:46:01.215Z,0
2022-07-27T03:46:21.186Z,0
2022-07-27T03:46:41.135Z,0
2022-07-27T03:47:01.190Z,0
2022-07-27T03:47:21.232Z,0
2022-07-27T03:47:41.305Z,0
2022-07-27T03:48:01.363Z,0
2022-07-27T03:48:21.420Z,0
2022-07-27T03:48:41.549Z,0
2022-07-27T03:49:01.672Z,0
2022-07-27T03:49:21.717Z,0
2022-07-27T03:49:41.646Z,0
2022-07-27T03:50:01.715Z,0
2022-07-27T03:50:21.788Z,0
2022-07-27T03:50:41.836Z,0
2022-07-27T03:51:01.963Z,0
2022-07-27T03:51:21.961Z,0
2022-07-27T03:51:42.015Z,0
2022-07-27T03:52:02.064Z,0
2022-07-27T03:52:22.152Z,0
2022-07-27T03:52:45.614Z,0
2022-07-27T03:53:02.248Z,0
2022-07-27T03:53:22.308Z,0
2022-07-27T03:53:42.359Z,0
2022-07-27T03:54:02.427Z,0
2022-07-27T03:54:22.482Z,0
2022-07-27T03:54:42.557Z,0
2022-07-27T03:55:02.608Z,0
2022-07-27T03:55:22.686Z,0
2022-07-27T03:55:42.721Z,0
2022-07-27T03:56:02.873Z,0
2022-07-27T03:56:22.863Z,0
2022-07-27T03:56:42.917Z,0
2022-07-27T03:57:02.970Z,0
2022-07-27T03:57:23.045Z,0
2022-07-27T03:57:43.095Z,0
2022-07-27T03:58:03.161Z,0
2022-07-27T03:58:23.219Z,0
2022-07-27T03:58:43.258Z,0
2022-07-27T03:59:03.341Z,0
2022-07-27T03:59:23.424Z,0
2022-07-27T03:59:43.465Z,0
2022-07-27T04:00:03.527Z,0
2022-07-27T04:00:23.605Z,0
2022-07-27T04:00:43.653Z,0
2022-07-27T04:01:03.824Z,0
2022-07-27T04:01:23.792Z,0
2022-07-27T04:01:43.909Z,0
2022-07-27T04:02:03.906Z,0
2022-07-27T04:02:24.017Z,0
2022-07-27T04:02:44.152Z,0
2022-07-27T04:03:04.057Z,0
2022-07-27T04:03:24.100Z,0
2022-07-27T04:03:44.564Z,0
2022-07-27T04:04:04.228Z,0
2022-07-27T04:04:24.293Z,0
2022-07-27T04:04:44.349Z,0
2022-07-27T04:05:04.410Z,0
2022-07-27T04:05:24.468Z,0
2022-07-27T04:05:44.530Z,0
2022-07-27T04:06:04.660Z,0
2022-07-27T04:06:24.649Z,0
2022-07-27T04:06:44.706Z,0
2022-07-27T04:07:04.768Z,0
2022-07-27T04:07:24.824Z,0
2022-07-27T04:07:44.877Z,0.003
2022-07-27T04:08:04.910Z,0.053
2022-07-27T04:08:24.995Z,0.054
2022-07-27T04:08:45.080Z,0.056
2022-07-27T04:09:08.677Z,0.056
2022-07-27T04:09:25.209Z,0.057
2022-07-27T04:09:45.336Z,0.058
2022-07-27T04:10:05.331Z,0.059
2022-07-27T04:10:25.545Z,0.061
2022-07-27T04:10:45.455Z,0.062
2022-07-27T04:11:05.591Z,0.062
2022-07-27T04:11:25.589Z,0.064
2022-07-27T04:11:51.031Z,0.065
2022-07-27T04:12:05.681Z,0.067
2022-07-27T04:12:25.743Z,0.068
2022-07-27T04:12:46.751Z,0.069
2022-07-27T04:13:05.841Z,0.071
2022-07-27T04:13:25.898Z,0.072
2022-07-27T04:13:45.948Z,0.073
2022-07-27T04:14:06.004Z,0.075
2022-07-27T04:14:26.055Z,0.075
2022-07-27T04:14:46.088Z,0.077
2022-07-27T04:15:06.194Z,0.08
2022-07-27T04:15:26.283Z,0.081
2022-07-27T04:15:46.338Z,0.082
2022-07-27T04:16:06.478Z,0.088
2022-07-27T04:16:26.583Z,0.084
2022-07-27T04:16:46.595Z,0.086
2022-07-27T04:17:06.679Z,0.088
2022-07-27T04:17:53.460Z,0.088
2022-07-27T04:17:55.266Z,0.089
2022-07-27T04:18:06.778Z,0.067
2022-07-27T04:18:26.843Z,0.094
2022-07-27T04:18:46.904Z,0.094
2022-07-27T04:19:06.957Z,0.108
2022-07-27T04:19:27.026Z,0.112
2022-07-27T04:19:47.075Z,0.115
2022-07-27T04:20:07.139Z,0.115
2022-07-27T04:20:27.202Z,0.119
2022-07-27T04:20:47.259Z,0.12
2022-07-27T04:21:07.389Z,0.122
2022-07-27T04:21:27.733Z,0.123
2022-07-27T04:21:47.451Z,0.125
2022-07-27T04:22:07.497Z,0.126
2022-07-27T04:22:27.557Z,0.13
2022-07-27T04:22:47.613Z,0.129
2022-07-27T04:23:07.677Z,0.131
2022-07-27T04:23:27.737Z,0.133
2022-07-27T04:23:47.776Z,0.135
2022-07-27T04:24:07.845Z,0.138
2022-07-27T04:24:27.900Z,0.138
2022-07-27T04:24:47.957Z,0.142
2022-07-27T04:25:08.021Z,0.14
2022-07-27T04:25:28.083Z,0.145
2022-07-27T04:25:48.150Z,0.145
2022-07-27T04:26:08.287Z,0.148
2022-07-27T04:26:28.270Z,0.149
2022-07-27T04:26:48.321Z,0.152
2022-07-27T04:27:08.372Z,0.155
2022-07-27T04:27:28.426Z,0.156
2022-07-27T04:27:48.493Z,0.156
2022-07-27T04:28:08.550Z,0.162
2022-07-27T04:28:28.608Z,0.163
2022-07-27T04:28:48.667Z,0.165
2022-07-27T04:29:08.937Z,0.168
2022-07-27T04:29:28.780Z,0.171
2022-07-27T04:29:48.963Z,0.172
2022-07-27T04:30:09.841Z,0.171
2022-07-27T04:30:28.998Z,0.176
2022-07-27T04:30:49.156Z,0.177
2022-07-27T04:31:09.202Z,0.176
2022-07-27T04:31:29.131Z,0.175
2022-07-27T04:31:49.201Z,0.179
2022-07-27T04:32:09.258Z,0.181
2022-07-27T04:32:29.310Z,0.18
2022-07-27T04:32:49.377Z,0.182
2022-07-27T04:33:09.446Z,0.184
2022-07-27T04:33:29.478Z,0.184
2022-07-27T04:33:49.540Z,0.185
2022-07-27T04:34:09.596Z,0.186
2022-07-27T04:34:29.661Z,0.185
2022-07-27T04:34:49.721Z,0.187
2022-07-27T04:35:09.768Z,0.186
2022-07-27T04:35:29.835Z,0.186
2022-07-27T04:35:49.901Z,0.185
2022-07-27T04:36:10.039Z,0.184
2022-07-27T04:36:30.038Z,0.187
2022-07-27T04:36:50.087Z,0.185
2022-07-27T04:37:10.143Z,0.183
2022-07-27T04:37:30.208Z,0.185
2022-07-27T04:37:58.342Z,0.185
2022-07-27T04:38:10.325Z,0.185
2022-07-27T04:38:30.384Z,0.184
2022-07-27T04:38:50.446Z,0.184
2022-07-27T04:39:10.787Z,0.183
2022-07-27T04:39:30.561Z,0.179
2022-07-27T04:39:50.618Z,0.18
2022-07-27T04:40:10.677Z,0.18
2022-07-27T04:40:30.749Z,0.177
2022-07-27T04:40:53.823Z,0.175
2022-07-27T04:41:10.934Z,0.174
2022-07-27T04:41:30.932Z,0.173
2022-07-27T04:41:50.983Z,0.168
2022-07-27T04:42:11.042Z,0.167
2022-07-27T04:42:31.098Z,0.166
2022-07-27T04:42:51.166Z,0.165
2022-07-27T04:43:11.218Z,0.162
2022-07-27T04:43:31.277Z,0.16
2022-07-27T04:43:51.342Z,0.159
2022-07-27T04:44:11.409Z,0.157
2022-07-27T04:44:31.457Z,0.157
2022-07-27T04:44:51.510Z,0.156
2022-07-27T04:45:11.562Z,0.154
2022-07-27T04:45:31.752Z,0.153
2022-07-27T04:45:51.782Z,0.151
2022-07-27T04:46:15.146Z,0.15
2022-07-27T04:46:31.858Z,0.147
2022-07-27T04:46:51.883Z,0.148
2022-07-27T04:47:11.927Z,0.146
2022-07-27T04:47:31.988Z,0.144
2022-07-27T04:47:52.029Z,0.143
2022-07-27T04:48:12.094Z,0.142
2022-07-27T04:48:32.205Z,0.141
2022-07-27T04:48:52.306Z,0.138
2022-07-27T04:49:12.819Z,0.135
2022-07-27T04:49:32.354Z,0.137
2022-07-27T04:49:52.411Z,0.135
2022-07-27T04:50:12.471Z,0.135
2022-07-27T04:50:32.543Z,0.135